Annandale, Virginia
Current Conditions -  °F | °C
As of 6:28 AM on Monday 22 Dec 2014 (Local Time) from KDAA Reporting Station
Overcast Overcast  
Wind Chill: 32°   Ceiling: 4400
Heat Index: 32°   Visibility: 8mi
Dew Point: 27°   Wind: 1mph
Humidity: 80%   Direction: 50°NE
Pressure: 30.3"   Gusts: NA
Location:  38.83°N, 77.19°W
Report Text: KDAA 221128Z AUTO 05001KT 8SM R32/5500FT OVC044 00/M03 A3030 RMK AO2
Loading
Personal Weather Stations






























Interactive Weather Map New forecast layout! Learn more

10-Day Weather Forecast

Advertisements
Track Severe Weather on mobile